Time;durP1;ratioP1;P1;durP2;ratioP2;P2;SDS_P1;SDS_P2;PMS_P1;PMS_P2;Temp;Humidity;BMP_temperature;BMP_pressure;BME280_temperature;BME280_humidity;BME280_pressure;Samples;Min_cycle;Max_cycle;Signal;HPM_P1;HPM_P2
2023/05/08 00:00:19;;;;;;;26.20;24.80;;;;;;;;;;5001074;28;20060;-66
2023/05/08 00:02:45;;;;;;;25.83;24.42;;;;;;;;;;5001871;28;20040;-65
2023/05/08 00:05:10;;;;;;;25.40;24.00;;;;;;;;;;5001492;28;20030;-66
2023/05/08 00:07:36;;;;;;;25.67;23.52;;;;;;;;;;5000489;28;20034;-66
2023/05/08 00:10:03;;;;;;;24.10;22.75;;;;;;;;;;5000083;28;20384;-66
2023/05/08 00:12:28;;;;;;;24.92;23.52;;;;;;;;;;4992961;28;20122;-66
2023/05/08 00:14:54;;;;;;;25.10;23.70;;;;;;;;;;4980062;28;20411;-65
2023/05/08 00:17:19;;;;;;;24.58;23.20;;;;;;;;;;5000312;28;20026;-67
2023/05/08 00:19:45;;;;;;;23.85;22.55;;;;;;;;;;4998004;28;20459;-66
2023/05/08 00:22:10;;;;;;;25.30;23.90;;;;;;;;;;5003309;28;20026;-67
2023/05/08 00:24:35;;;;;;;23.67;22.38;;;;;;;;;;4997873;28;20033;-66
2023/05/08 00:27:01;;;;;;;24.38;23.08;;;;;;;;;;4999510;28;20104;-66
2023/05/08 00:29:26;;;;;;;25.40;24.00;;;;;;;;;;5002350;28;20042;-66
2023/05/08 00:31:51;;;;;;;26.77;25.33;;;;;;;;;;5001242;28;20497;-67
2023/05/08 00:34:17;;;;;;;26.27;24.70;;;;;;;;;;4997679;28;20038;-66
2023/05/08 00:36:42;;;;;;;26.38;24.88;;;;;;;;;;4996251;28;20034;-65
2023/05/08 00:39:07;;;;;;;26.35;24.92;;;;;;;;;;4997761;28;20581;-65
2023/05/08 00:41:33;;;;;;;28.20;26.60;;;;;;;;;;5002414;28;20045;-65
2023/05/08 00:43:58;;;;;;;27.85;26.20;;;;;;;;;;4999583;28;20038;-65
2023/05/08 00:46:23;;;;;;;25.88;24.48;;;;;;;;;;4988067;28;20057;-66
2023/05/08 00:48:49;;;;;;;25.73;24.25;;;;;;;;;;4997955;28;20583;-67
2023/05/08 00:51:15;;;;;;;23.80;22.40;;;;;;;;;;5000449;28;20049;-66
2023/05/08 00:53:42;;;;;;;21.83;20.63;;;;;;;;;;4997901;28;20046;-66
2023/05/08 00:56:13;;;;;;;22.90;21.63;;;;;;;;;;5000612;28;20064;-66
2023/05/08 00:58:40;;;;;;;24.05;22.67;;;;;;;;;;4998527;28;20141;-66
2023/05/08 01:01:06;;;;;;;23.70;22.35;;;;;;;;;;4998888;28;20037;-65
2023/05/08 01:03:34;;;;;;;23.13;21.90;;;;;;;;;;4999459;28;20021;-66
2023/05/08 01:06:01;;;;;;;23.95;22.65;;;;;;;;;;5001728;28;20129;-66
2023/05/08 01:08:26;;;;;;;23.45;22.17;;;;;;;;;;4988605;28;20038;-65
2023/05/08 01:11:13;;;;;;;25.20;23.85;;;;;;;;;;4995406;28;20105;-65
2023/05/08 01:13:41;;;;;;;24.88;23.55;;;;;;;;;;5001209;28;20065;-65
2023/05/08 01:16:14;;;;;;;25.92;24.48;;;;;;;;;;4998856;28;20053;-65
2023/05/08 01:19:02;;;;;;;24.45;23.15;;;;;;;;;;4996431;28;20030;-65
2023/05/08 01:21:40;;;;;;;23.63;22.23;;;;;;;;;;4995572;28;20842;-65
2023/05/08 01:24:19;;;;;;;23.25;21.98;;;;;;;;;;4999915;28;20038;-65
2023/05/08 01:26:47;;;;;;;22.90;21.60;;;;;;;;;;4988358;28;20037;-65
2023/05/08 01:30:08;;;;;;;22.73;21.42;;;;;;;;;;5000832;28;20034;-66
2023/05/08 01:32:42;;;;;;;21.05;19.85;;;;;;;;;;4923563;29;20047;-65
2023/05/08 01:35:20;;;;;;;22.13;20.85;;;;;;;;;;4923351;29;20656;-66
2023/05/08 01:38:24;;;;;;;20.23;19.13;;;;;;;;;;4970101;28;20056;-66
2023/05/08 01:40:55;;;;;;;23.80;22.40;;;;;;;;;;4994459;28;20034;-66
2023/05/08 01:43:20;;;;;;;;;;;;;;;;;;4998000;28;20665;-65
2023/05/08 01:45:48;;;;;;;19.00;17.95;;;;;;;;;;4998047;28;19918;-65
2023/05/08 01:48:27;;;;;;;22.35;21.08;;;;;;;;;;4996533;28;20037;-65
2023/05/08 01:50:59;;;;;;;22.05;20.75;;;;;;;;;;4998074;28;20033;-65
2023/05/08 01:53:39;;;;;;;21.92;20.63;;;;;;;;;;4996560;28;20132;-66
2023/05/08 01:56:16;;;;;;;21.67;20.38;;;;;;;;;;4993552;28;20057;-60
2023/05/08 01:58:42;;;;;;;29.10;21.38;;;;;;;;;;4994924;28;20041;-60
2023/05/08 02:01:10;;;;;;;21.95;20.67;;;;;;;;;;4997256;28;20049;-59
2023/05/08 02:03:38;;;;;;;21.38;20.17;;;;;;;;;;5001117;28;20054;-60
2023/05/08 02:06:05;;;;;;;20.65;19.45;;;;;;;;;;4994219;28;20030;-60
2023/05/08 02:08:32;;;;;;;19.55;18.45;;;;;;;;;;4985225;28;20048;-59
2023/05/08 02:10:59;;;;;;;21.88;20.58;;;;;;;;;;4995646;28;20492;-60
2023/05/08 02:13:26;;;;;;;22.40;21.10;;;;;;;;;;4998848;28;20486;-59
2023/05/08 02:15:53;;;;;;;20.65;19.45;;;;;;;;;;4994970;28;20586;-60
2023/05/08 02:18:21;;;;;;;19.85;18.73;;;;;;;;;;4998318;28;20038;-59
2023/05/08 02:20:49;;;;;;;21.05;19.90;;;;;;;;;;4998652;28;20030;-60
2023/05/08 02:23:19;;;;;;;22.52;21.23;;;;;;;;;;5001392;28;20356;-59
2023/05/08 02:25:46;;;;;;;19.95;18.85;;;;;;;;;;4977798;28;20037;-59
2023/05/08 02:28:12;;;;;;;21.42;20.23;;;;;;;;;;4997798;28;20416;-59
2023/05/08 02:30:38;;;;;;;22.45;21.05;;;;;;;;;;4995412;28;20113;-59
2023/05/08 02:33:07;;;;;;;23.13;21.83;;;;;;;;;;4993787;28;20034;-59
2023/05/08 02:35:34;;;;;;;24.20;22.90;;;;;;;;;;4995046;28;20105;-59
2023/05/08 02:38:00;;;;;;;21.95;20.70;;;;;;;;;;4997316;28;20124;-59
2023/05/08 02:40:28;;;;;;;21.42;20.23;;;;;;;;;;4997370;28;20026;-59
2023/05/08 02:42:54;;;;;;;20.67;19.55;;;;;;;;;;4999386;28;20034;-59
2023/05/08 02:45:24;;;;;;;20.88;19.67;;;;;;;;;;4992492;28;20073;-59
2023/05/08 02:48:08;;;;;;;19.95;18.75;;;;;;;;;;4981976;28;20034;-59
2023/05/08 02:51:01;;;;;;;21.27;20.05;;;;;;;;;;4993976;28;20033;-60
2023/05/08 02:54:09;;;;;;;20.98;19.75;;;;;;;;;;4996618;28;20042;-60
2023/05/08 02:56:54;;;;;;;19.25;18.15;;;;;;;;;;4961776;28;20054;-59
2023/05/08 02:59:27;;;;;;;20.70;19.50;;;;;;;;;;4996194;28;20026;-60
2023/05/08 03:02:08;;;;;;;19.38;18.27;;;;;;;;;;4998505;28;20034;-60
2023/05/08 03:04:38;;;;;;;19.38;18.27;;;;;;;;;;4996940;28;20034;-59
2023/05/08 03:07:05;;;;;;;19.52;18.42;;;;;;;;;;4994044;28;20037;-60
2023/05/08 03:09:45;;;;;;;21.58;20.38;;;;;;;;;;4985014;28;20041;-59
2023/05/08 03:12:16;;;;;;;19.92;18.83;;;;;;;;;;4996383;28;22519;-59
2023/05/08 03:15:03;;;;;;;19.55;18.45;;;;;;;;;;5000444;28;20048;-60
2023/05/08 03:17:32;;;;;;;17.95;16.95;;;;;;;;;;4999564;28;20033;-60
2023/05/08 03:20:03;;;;;;;19.95;18.65;;;;;;;;;;4996597;28;20088;-60
2023/05/08 03:22:30;;;;;;;19.13;18.02;;;;;;;;;;4994814;28;20041;-60
2023/05/08 03:24:58;;;;;;;19.70;18.30;;;;;;;;;;4993445;28;20049;-63
2023/05/08 03:27:25;;;;;;;19.40;18.30;;;;;;;;;;4999768;28;20029;-61
2023/05/08 03:29:52;;;;;;;19.40;18.30;;;;;;;;;;4994235;28;20046;-61
2023/05/08 03:32:18;;;;;;;19.80;18.70;;;;;;;;;;4993537;28;20033;-60
2023/05/08 03:34:45;;;;;;;18.40;17.30;;;;;;;;;;4995049;28;20029;-60
2023/05/08 03:37:11;;;;;;;18.25;17.17;;;;;;;;;;4992881;28;20061;-60
2023/05/08 03:39:36;;;;;;;19.35;18.25;;;;;;;;;;4998699;28;20053;-61
2023/05/08 03:42:02;;;;;;;19.42;18.33;;;;;;;;;;4992327;28;20729;-60
2023/05/08 03:44:28;;;;;;;18.38;17.35;;;;;;;;;;4991585;28;20732;-60
2023/05/08 03:46:56;;;;;;;17.95;16.95;;;;;;;;;;4991607;28;20038;-60
2023/05/08 03:49:23;;;;;;;19.98;18.77;;;;;;;;;;4994570;28;20041;-60
2023/05/08 03:51:50;;;;;;;18.77;17.67;;;;;;;;;;5000286;28;20367;-60
2023/05/08 03:54:15;;;;;;;18.25;17.25;;;;;;;;;;4995039;28;20049;-60
2023/05/08 03:56:40;;;;;;;18.30;17.10;;;;;;;;;;4991770;28;20045;-60
2023/05/08 03:59:16;;;;;;;18.48;17.38;;;;;;;;;;4992818;28;20041;-60
2023/05/08 04:01:49;;;;;;;17.30;16.30;;;;;;;;;;4996903;28;20792;-60
2023/05/08 04:04:32;;;;;;;18.00;16.95;;;;;;;;;;4993927;28;20029;-60
2023/05/08 04:07:23;;;;;;;17.88;16.88;;;;;;;;;;4993345;28;20057;-60
2023/05/08 04:09:48;;;;;;;17.92;16.92;;;;;;;;;;4981557;28;20058;-60
2023/05/08 04:12:20;;;;;;;17.88;16.85;;;;;;;;;;4997504;28;20103;-60
2023/05/08 04:14:55;;;;;;;18.75;17.65;;;;;;;;;;4993842;28;20034;-60
2023/05/08 04:17:36;;;;;;;18.00;16.90;;;;;;;;;;4993889;28;20038;-60
2023/05/08 04:20:03;;;;;;;18.55;17.50;;;;;;;;;;4975648;28;20058;-60
2023/05/08 04:22:31;;;;;;;18.40;17.30;;;;;;;;;;4999012;28;20045;-60
2023/05/08 04:25:00;;;;;;;18.05;17.05;;;;;;;;;;4996772;28;20133;-60
2023/05/08 04:27:26;;;;;;;17.88;16.88;;;;;;;;;;4995163;28;20116;-60
2023/05/08 04:29:53;;;;;;;17.90;16.90;;;;;;;;;;4995435;28;20045;-60
2023/05/08 04:32:18;;;;;;;16.73;15.77;;;;;;;;;;4995721;28;20057;-59
2023/05/08 04:34:44;;;;;;;16.70;15.75;;;;;;;;;;4994668;28;20112;-60
2023/05/08 04:37:27;;;;;;;16.30;15.40;;;;;;;;;;4994607;28;20117;-60
2023/05/08 04:39:53;;;;;;;16.65;15.68;;;;;;;;;;4995692;28;20037;-59
2023/05/08 04:42:19;;;;;;;16.67;15.57;;;;;;;;;;5001041;28;20033;-60
2023/05/08 04:44:46;;;;;;;16.33;15.38;;;;;;;;;;5000364;28;20037;-60
2023/05/08 04:47:12;;;;;;;18.77;17.45;;;;;;;;;;5000634;28;20483;-60
2023/05/08 04:49:37;;;;;;;17.77;16.73;;;;;;;;;;5000542;28;20139;-60
2023/05/08 04:52:03;;;;;;;17.45;16.45;;;;;;;;;;5000135;28;20137;-60
2023/05/08 04:54:28;;;;;;;17.33;16.35;;;;;;;;;;4999801;28;20034;-60
2023/05/08 04:56:54;;;;;;;17.75;16.65;;;;;;;;;;4999622;28;20041;-60
2023/05/08 04:59:19;;;;;;;16.58;15.57;;;;;;;;;;4999397;28;20040;-60
2023/05/08 05:01:46;;;;;;;16.90;15.90;;;;;;;;;;4999375;28;20091;-60
2023/05/08 05:04:12;;;;;;;17.42;16.42;;;;;;;;;;4995197;28;20069;-60
2023/05/08 05:06:37;;;;;;;16.45;15.52;;;;;;;;;;5000663;28;20454;-60
2023/05/08 05:09:04;;;;;;;17.77;16.48;;;;;;;;;;4997113;28;20050;-68
2023/05/08 05:11:29;;;;;;;16.88;15.88;;;;;;;;;;4997718;28;20096;-60
2023/05/08 05:13:55;;;;;;;17.27;16.27;;;;;;;;;;4999853;28;20034;-59
2023/05/08 05:16:20;;;;;;;16.75;15.65;;;;;;;;;;4985353;28;20117;-67
2023/05/08 05:18:46;;;;;;;15.73;14.82;;;;;;;;;;4997770;28;20092;-59
2023/05/08 05:21:12;;;;;;;17.85;16.75;;;;;;;;;;4997680;28;20579;-59
2023/05/08 05:23:37;;;;;;;16.17;15.18;;;;;;;;;;5000547;28;20464;-59
2023/05/08 05:26:03;;;;;;;16.48;15.48;;;;;;;;;;4999239;28;20046;-59
2023/05/08 05:28:28;;;;;;;16.10;15.05;;;;;;;;;;4997164;28;20114;-64
2023/05/08 05:30:54;;;;;;;15.30;14.30;;;;;;;;;;4997050;28;20060;-59
2023/05/08 05:33:19;;;;;;;15.32;14.32;;;;;;;;;;5000453;28;20060;-59
2023/05/08 05:35:45;;;;;;;14.00;13.20;;;;;;;;;;4998442;28;20036;-59
2023/05/08 05:38:10;;;;;;;15.65;14.75;;;;;;;;;;4997492;28;20050;-66
2023/05/08 05:40:35;;;;;;;15.93;14.93;;;;;;;;;;4998259;28;20034;-66
2023/05/08 05:43:01;;;;;;;15.02;14.13;;;;;;;;;;5001170;28;20121;-66
2023/05/08 05:45:26;;;;;;;14.95;14.05;;;;;;;;;;4998726;28;20728;-66
2023/05/08 05:47:52;;;;;;;15.38;14.38;;;;;;;;;;4999814;28;20038;-66
2023/05/08 05:50:20;;;;;;;16.13;15.02;;;;;;;;;;4997382;28;20038;-66
2023/05/08 05:52:45;;;;;;;16.20;15.30;;;;;;;;;;4995769;28;20026;-66
2023/05/08 05:55:11;;;;;;;17.90;16.83;;;;;;;;;;4993387;28;20045;-66
2023/05/08 05:57:37;;;;;;;17.92;16.83;;;;;;;;;;4995572;28;21006;-66
2023/05/08 06:00:04;;;;;;;17.45;16.45;;;;;;;;;;4994598;28;20037;-59
2023/05/08 06:02:29;;;;;;;17.95;16.75;;;;;;;;;;4999712;28;20030;-59
2023/05/08 06:04:54;;;;;;;17.75;16.73;;;;;;;;;;4996901;28;20034;-59
2023/05/08 06:07:20;;;;;;;19.02;17.85;;;;;;;;;;4995756;28;20042;-65
2023/05/08 06:09:46;;;;;;;18.85;17.75;;;;;;;;;;4999562;28;20076;-65
2023/05/08 06:12:12;;;;;;;20.00;18.80;;;;;;;;;;4998524;28;20372;-65
2023/05/08 06:14:37;;;;;;;19.40;18.30;;;;;;;;;;4979068;28;20041;-59
2023/05/08 06:17:02;;;;;;;19.42;18.33;;;;;;;;;;4995890;28;20033;-59
2023/05/08 06:19:28;;;;;;;18.95;17.85;;;;;;;;;;4996158;28;20459;-59
2023/05/08 06:21:53;;;;;;;20.63;19.42;;;;;;;;;;4995420;28;20052;-65
2023/05/08 06:24:19;;;;;;;19.02;17.92;;;;;;;;;;4993779;28;20034;-66
2023/05/08 06:26:45;;;;;;;18.20;16.90;;;;;;;;;;4992895;28;20132;-65
2023/05/08 06:29:11;;;;;;;18.15;17.05;;;;;;;;;;4996510;28;20037;-59
2023/05/08 06:31:36;;;;;;;18.58;17.58;;;;;;;;;;4997153;28;20033;-65
2023/05/08 06:34:02;;;;;;;17.98;16.98;;;;;;;;;;4977971;28;20069;-59
2023/05/08 06:36:28;;;;;;;19.58;18.38;;;;;;;;;;4995566;28;20061;-58
2023/05/08 06:38:53;;;;;;;17.17;16.17;;;;;;;;;;4997269;28;20426;-59
2023/05/08 06:41:18;;;;;;;17.10;16.10;;;;;;;;;;4998983;28;20030;-59
2023/05/08 06:43:44;;;;;;;18.10;17.10;;;;;;;;;;4993695;28;20030;-59
2023/05/08 06:46:09;;;;;;;18.13;17.02;;;;;;;;;;4996578;28;20400;-58
2023/05/08 06:48:34;;;;;;;17.02;16.02;;;;;;;;;;4995403;28;20540;-58
2023/05/08 06:51:01;;;;;;;17.80;16.77;;;;;;;;;;4996856;28;20088;-59
2023/05/08 06:53:26;;;;;;;17.42;16.42;;;;;;;;;;4995563;28;20048;-58
2023/05/08 06:55:52;;;;;;;16.55;15.60;;;;;;;;;;4998231;28;20445;-58
2023/05/08 06:58:17;;;;;;;17.70;16.70;;;;;;;;;;4993945;28;20501;-59
2023/05/08 07:00:42;;;;;;;18.20;17.10;;;;;;;;;;4981086;28;20121;-59
2023/05/08 07:03:08;;;;;;;18.80;17.70;;;;;;;;;;4977525;28;20133;-58
2023/05/08 07:05:33;;;;;;;17.42;16.35;;;;;;;;;;4981099;28;20038;-58
2023/05/08 07:07:58;;;;;;;19.08;17.98;;;;;;;;;;4996428;28;20037;-58
2023/05/08 07:10:24;;;;;;;18.23;17.20;;;;;;;;;;4997431;28;20570;-58
2023/05/08 07:12:49;;;;;;;18.50;17.50;;;;;;;;;;4997780;28;20046;-58
2023/05/08 07:15:15;;;;;;;17.58;16.58;;;;;;;;;;4994761;28;20034;-58
2023/05/08 07:17:40;;;;;;;17.10;16.10;;;;;;;;;;4994409;28;20033;-57
2023/05/08 07:20:07;;;;;;;17.27;16.25;;;;;;;;;;4992084;28;20046;-58
2023/05/08 07:22:32;;;;;;;18.80;17.60;;;;;;;;;;4997076;28;20410;-58
2023/05/08 07:24:57;;;;;;;18.08;16.88;;;;;;;;;;4997050;28;20038;-58
2023/05/08 07:27:23;;;;;;;16.70;15.70;;;;;;;;;;4978813;28;20113;-58
2023/05/08 07:29:48;;;;;;;17.45;16.45;;;;;;;;;;4975943;28;20042;-58
2023/05/08 07:32:14;;;;;;;16.75;15.65;;;;;;;;;;4996779;28;20748;-58
2023/05/08 07:34:39;;;;;;;18.02;16.92;;;;;;;;;;4998195;28;20586;-58
2023/05/08 07:37:05;;;;;;;18.40;17.30;;;;;;;;;;4998302;28;20670;-58
2023/05/08 07:39:30;;;;;;;17.65;16.65;;;;;;;;;;4997029;28;20495;-58
2023/05/08 07:41:56;;;;;;;17.33;16.33;;;;;;;;;;4996248;28;20070;-58
2023/05/08 07:44:21;;;;;;;17.13;16.17;;;;;;;;;;4995434;28;20098;-58
2023/05/08 07:46:46;;;;;;;17.98;16.95;;;;;;;;;;4996175;28;20026;-58
2023/05/08 07:49:12;;;;;;;17.67;16.60;;;;;;;;;;4996706;28;20393;-58
2023/05/08 07:51:39;;;;;;;17.70;16.65;;;;;;;;;;4998906;28;20794;-58
2023/05/08 07:54:04;;;;;;;18.48;17.30;;;;;;;;;;4996577;28;20066;-58
2023/05/08 07:56:30;;;;;;;20.83;19.63;;;;;;;;;;4996582;28;20070;-58
2023/05/08 07:58:55;;;;;;;19.15;17.70;;;;;;;;;;4996664;28;20399;-58
2023/05/08 08:01:20;;;;;;;21.90;19.80;;;;;;;;;;4993802;28;20455;-57
2023/05/08 08:03:46;;;;;;;21.25;20.05;;;;;;;;;;4994158;28;20167;-57
2023/05/08 08:06:12;;;;;;;19.77;18.67;;;;;;;;;;4991812;28;20037;-57
2023/05/08 08:08:38;;;;;;;21.45;20.25;;;;;;;;;;4982844;28;20612;-56
2023/05/08 08:11:04;;;;;;;19.98;18.88;;;;;;;;;;4981036;28;20042;-62
2023/05/08 08:13:30;;;;;;;23.98;22.58;;;;;;;;;;4998201;28;20041;-56
2023/05/08 08:15:56;;;;;;;22.88;21.58;;;;;;;;;;4996142;28;20034;-56
2023/05/08 08:18:21;;;;;;;24.80;23.40;;;;;;;;;;4985243;28;20030;-56
2023/05/08 08:20:46;;;;;;;21.77;20.58;;;;;;;;;;5000706;28;20069;-54
2023/05/08 08:23:12;;;;;;;22.38;21.08;;;;;;;;;;5002118;28;20044;-56
2023/05/08 08:25:37;;;;;;;25.45;24.02;;;;;;;;;;4996088;28;20112;-56
2023/05/08 08:28:03;;;;;;;23.73;22.42;;;;;;;;;;4996146;28;20145;-55
2023/05/08 08:30:28;;;;;;;25.13;23.73;;;;;;;;;;4999752;28;20040;-55
2023/05/08 08:32:53;;;;;;;25.90;24.50;;;;;;;;;;4999223;28;20049;-55
2023/05/08 08:35:19;;;;;;;25.08;23.77;;;;;;;;;;4981109;28;20038;-55
2023/05/08 08:37:44;;;;;;;24.63;23.23;;;;;;;;;;4998877;28;20121;-55
2023/05/08 08:40:10;;;;;;;24.58;23.25;;;;;;;;;;4998608;28;20029;-56
2023/05/08 08:42:35;;;;;;;26.65;25.05;;;;;;;;;;5003324;28;20625;-55
2023/05/08 08:45:01;;;;;;;25.75;24.35;;;;;;;;;;5001191;28;20037;-55
2023/05/08 08:47:28;;;;;;;26.35;24.92;;;;;;;;;;4999073;28;20092;-55
2023/05/08 08:49:55;;;;;;;27.67;26.08;;;;;;;;;;4994217;28;20037;-55
2023/05/08 08:52:42;;;;;;;25.00;23.65;;;;;;;;;;4995287;28;20080;-55
2023/05/08 08:55:13;;;;;;;24.38;23.08;;;;;;;;;;4997948;28;20068;-54
2023/05/08 08:57:50;;;;;;;26.50;25.00;;;;;;;;;;4998542;28;20041;-55
2023/05/08 09:00:17;;;;;;;25.42;24.02;;;;;;;;;;4999126;28;20064;-55
2023/05/08 09:02:43;;;;;;;25.13;23.73;;;;;;;;;;4998144;28;20076;-54
2023/05/08 09:05:09;;;;;;;27.70;26.20;;;;;;;;;;4997639;28;20575;-53
2023/05/08 09:07:34;;;;;;;24.88;23.50;;;;;;;;;;5000338;28;20041;-55
2023/05/08 09:10:00;;;;;;;26.73;25.33;;;;;;;;;;5000552;28;20059;-54
2023/05/08 09:12:26;;;;;;;28.05;26.55;;;;;;;;;;5000012;28;20467;-55
2023/05/08 09:14:51;;;;;;;31.20;29.42;;;;;;;;;;4996725;28;20117;-55
2023/05/08 09:17:17;;;;;;;25.25;23.85;;;;;;;;;;4996676;28;20072;-54
2023/05/08 09:19:43;;;;;;;24.02;22.73;;;;;;;;;;4979339;28;20045;-53
2023/05/08 09:22:09;;;;;;;21.85;20.63;;;;;;;;;;4998522;28;20068;-55
2023/05/08 09:25:05;;;;;;;22.83;21.52;;;;;;;;;;4999560;28;20118;-52
2023/05/08 09:27:31;;;;;;;21.90;20.70;;;;;;;;;;4956246;28;20038;-55
2023/05/08 09:30:05;;;;;;;20.50;19.40;;;;;;;;;;4997887;28;20038;-56
2023/05/08 09:32:33;;;;;;;21.38;20.17;;;;;;;;;;4999826;28;20041;-52
2023/05/08 09:34:59;;;;;;;20.88;19.63;;;;;;;;;;4996598;28;20120;-55
2023/05/08 09:37:26;;;;;;;17.15;16.15;;;;;;;;;;4999891;28;20033;-52
2023/05/08 09:39:52;;;;;;;18.05;17.00;;;;;;;;;;5001035;28;20041;-54
2023/05/08 09:42:17;;;;;;;18.83;17.73;;;;;;;;;;4998140;28;20482;-54
2023/05/08 09:44:44;;;;;;;15.25;14.35;;;;;;;;;;4995688;28;20062;-55
2023/05/08 09:47:14;;;;;;;15.15;14.25;;;;;;;;;;4993730;28;20039;-55
2023/05/08 09:49:55;;;;;;;13.75;12.95;;;;;;;;;;4997453;28;20566;-54
2023/05/08 09:52:21;;;;;;;14.75;13.85;;;;;;;;;;4994852;28;20045;-62
2023/05/08 09:54:48;;;;;;;12.48;11.68;;;;;;;;;;4996109;28;20033;-62
2023/05/08 09:57:13;;;;;;;13.48;12.57;;;;;;;;;;4996316;28;20499;-54
2023/05/08 09:59:39;;;;;;;12.27;11.43;;;;;;;;;;4997918;28;20034;-62
2023/05/08 10:02:11;;;;;;;12.70;11.90;;;;;;;;;;4993800;28;20100;-63
2023/05/08 10:04:37;;;;;;;10.93;10.23;;;;;;;;;;4984994;28;20030;-63
2023/05/08 10:07:03;;;;;;;11.38;10.57;;;;;;;;;;4997754;28;20061;-55
2023/05/08 10:09:28;;;;;;;12.10;11.27;;;;;;;;;;4997142;28;20463;-54
2023/05/08 10:11:54;;;;;;;11.30;10.52;;;;;;;;;;4996083;28;20048;-54
2023/05/08 10:14:23;;;;;;;11.80;11.00;;;;;;;;;;4999211;28;20030;-51
2023/05/08 10:16:53;;;;;;;10.98;10.27;;;;;;;;;;4998254;28;20046;-63
2023/05/08 10:19:20;;;;;;;12.43;11.57;;;;;;;;;;4999278;28;20037;-62
2023/05/08 10:21:48;;;;;;;11.10;10.35;;;;;;;;;;4997899;28;20440;-55
2023/05/08 10:24:17;;;;;;;12.02;11.30;;;;;;;;;;4997182;28;20071;-64
2023/05/08 10:26:50;;;;;;;11.23;10.45;;;;;;;;;;4980987;28;20041;-63
2023/05/08 10:29:19;;;;;;;12.90;12.07;;;;;;;;;;4995635;28;20997;-62
2023/05/08 10:31:47;;;;;;;11.20;10.45;;;;;;;;;;4999672;28;20033;-62
2023/05/08 10:34:18;;;;;;;12.63;11.68;;;;;;;;;;4968232;28;20080;-62
2023/05/08 10:36:46;;;;;;;12.98;12.18;;;;;;;;;;4997469;28;20025;-63
2023/05/08 10:39:13;;;;;;;13.25;12.45;;;;;;;;;;4994820;28;20141;-54
2023/05/08 10:41:40;;;;;;;13.60;12.75;;;;;;;;;;4991514;28;20368;-63
2023/05/08 10:44:07;;;;;;;13.10;12.30;;;;;;;;;;4991231;28;20042;-63
2023/05/08 10:46:45;;;;;;;15.07;14.18;;;;;;;;;;4993667;28;20091;-63
2023/05/08 10:49:28;;;;;;;15.00;13.65;;;;;;;;;;4994529;28;20042;-55
2023/05/08 10:52:00;;;;;;;13.93;13.13;;;;;;;;;;4994720;28;20562;-63
2023/05/08 10:54:30;;;;;;;18.48;17.27;;;;;;;;;;4995980;28;20129;-63
2023/05/08 10:57:10;;;;;;;13.82;13.02;;;;;;;;;;5001146;28;20038;-63
2023/05/08 10:59:36;;;;;;;16.77;15.68;;;;;;;;;;4996268;28;20549;-55
2023/05/08 11:02:06;;;;;;;14.85;13.95;;;;;;;;;;4995141;28;20079;-63
2023/05/08 11:04:32;;;;;;;14.60;13.70;;;;;;;;;;4995555;28;20489;-63
2023/05/08 11:06:58;;;;;;;14.55;13.65;;;;;;;;;;4997774;28;20061;-63
2023/05/08 11:09:44;;;;;;;13.50;12.70;;;;;;;;;;4999771;28;20037;-54
2023/05/08 11:12:26;;;;;;;12.95;12.18;;;;;;;;;;4997463;28;20041;-63
2023/05/08 11:15:06;;;;;;;13.80;13.00;;;;;;;;;;4994334;28;20061;-63
2023/05/08 11:17:31;;;;;;;17.13;16.02;;;;;;;;;;4995842;28;20380;-54
2023/05/08 11:19:59;;;;;;;15.52;14.55;;;;;;;;;;4995873;28;20042;-54
2023/05/08 11:22:27;;;;;;;15.20;14.30;;;;;;;;;;4982964;28;20030;-63
2023/05/08 11:25:09;;;;;;;17.48;16.48;;;;;;;;;;4995160;28;20034;-63
2023/05/08 11:27:38;;;;;;;15.98;14.98;;;;;;;;;;4994689;28;20436;-52
2023/05/08 11:30:43;;;;;;;15.90;14.90;;;;;;;;;;4993672;28;20033;-63
2023/05/08 11:33:08;;;;;;;14.48;13.57;;;;;;;;;;4994405;28;20046;-53
2023/05/08 11:35:49;;;;;;;13.80;12.90;;;;;;;;;;4977801;28;20033;-54
2023/05/08 11:38:26;;;;;;;15.68;14.68;;;;;;;;;;4994191;28;20080;-63
2023/05/08 11:41:04;;;;;;;15.73;14.73;;;;;;;;;;4994480;28;20034;-63
2023/05/08 11:43:31;;;;;;;13.48;12.68;;;;;;;;;;4995958;28;20057;-62
2023/05/08 11:46:00;;;;;;;14.02;13.23;;;;;;;;;;4997176;28;20121;-63
2023/05/08 11:48:26;;;;;;;13.38;12.57;;;;;;;;;;4995883;28;20137;-62
2023/05/08 11:50:51;;;;;;;14.55;13.65;;;;;;;;;;4995049;28;20345;-62
2023/05/08 11:53:17;;;;;;;14.98;14.07;;;;;;;;;;4999525;28;20038;-62
2023/05/08 11:55:47;;;;;;;15.73;14.73;;;;;;;;;;4999615;28;20034;-62
2023/05/08 11:58:13;;;;;;;15.02;14.02;;;;;;;;;;4997198;28;20030;-62
2023/05/08 12:00:43;;;;;;;14.32;13.43;;;;;;;;;;4987842;28;20149;-62
2023/05/08 12:03:13;;;;;;;14.50;13.60;;;;;;;;;;4998096;28;20471;-61
2023/05/08 12:05:39;;;;;;;15.20;14.20;;;;;;;;;;4996458;28;20048;-62
2023/05/08 12:08:06;;;;;;;15.65;14.70;;;;;;;;;;5000944;28;20046;-62
2023/05/08 12:10:32;;;;;;;14.68;13.68;;;;;;;;;;4998161;28;20095;-62
2023/05/08 12:12:57;;;;;;;15.13;14.23;;;;;;;;;;4994971;28;20038;-61
2023/05/08 12:15:22;;;;;;;14.10;13.30;;;;;;;;;;4991265;28;20150;-61
2023/05/08 12:17:47;;;;;;;13.80;12.90;;;;;;;;;;5000270;28;20180;-61
2023/05/08 12:20:15;;;;;;;13.82;13.02;;;;;;;;;;4999890;28;20026;-53
2023/05/08 12:22:41;;;;;;;15.35;14.35;;;;;;;;;;5000140;28;20039;-55
2023/05/08 12:25:09;;;;;;;14.02;13.23;;;;;;;;;;4997070;28;20092;-61
2023/05/08 12:27:37;;;;;;;12.98;12.18;;;;;;;;;;4997052;28;20034;-52
2023/05/08 12:30:11;;;;;;;13.60;12.80;;;;;;;;;;5001997;28;20470;-54
2023/05/08 12:32:38;;;;;;;13.95;13.05;;;;;;;;;;5000954;28;20144;-61
2023/05/08 12:35:05;;;;;;;15.48;14.57;;;;;;;;;;4981990;28;20078;-62
2023/05/08 12:37:30;;;;;;;13.13;12.32;;;;;;;;;;4995128;28;20149;-62
2023/05/08 12:39:56;;;;;;;13.13;12.32;;;;;;;;;;4998438;28;20519;-62
2023/05/08 12:42:21;;;;;;;15.02;14.07;;;;;;;;;;4993818;28;20153;-62
2023/05/08 12:44:51;;;;;;;14.93;14.00;;;;;;;;;;4998809;28;20129;-63
2023/05/08 12:47:19;;;;;;;16.45;15.32;;;;;;;;;;4999349;28;20037;-54
2023/05/08 12:49:48;;;;;;;15.95;15.05;;;;;;;;;;4997897;28;20041;-53
2023/05/08 12:52:14;;;;;;;13.80;12.95;;;;;;;;;;4998557;28;20052;-56
2023/05/08 12:54:45;;;;;;;13.85;13.02;;;;;;;;;;4994652;28;20030;-63
2023/05/08 12:57:18;;;;;;;14.27;12.98;;;;;;;;;;4998407;28;20124;-53
2023/05/08 12:59:45;;;;;;;15.02;14.13;;;;;;;;;;5000194;28;20494;-55
2023/05/08 13:02:17;;;;;;;12.30;11.50;;;;;;;;;;4996034;28;20046;-55
2023/05/08 13:04:44;;;;;;;13.85;12.85;;;;;;;;;;4994444;28;20567;-54
2023/05/08 13:07:09;;;;;;;14.02;13.15;;;;;;;;;;5002035;28;20608;-53
2023/05/08 13:09:35;;;;;;;13.25;12.45;;;;;;;;;;5002240;28;20037;-64
2023/05/08 13:12:00;;;;;;;13.30;12.50;;;;;;;;;;4997222;28;20037;-63
2023/05/08 13:14:26;;;;;;;14.38;13.48;;;;;;;;;;4992591;28;20038;-55
2023/05/08 13:16:51;;;;;;;14.13;13.32;;;;;;;;;;4998544;28;20500;-55
2023/05/08 13:19:17;;;;;;;13.25;12.35;;;;;;;;;;4997693;28;20034;-63
2023/05/08 13:21:46;;;;;;;14.35;13.45;;;;;;;;;;5000948;28;20041;-55
2023/05/08 13:24:11;;;;;;;14.27;13.48;;;;;;;;;;4996570;28;20107;-63
2023/05/08 13:26:37;;;;;;;15.63;14.63;;;;;;;;;;4996700;28;20089;-56
2023/05/08 13:29:02;;;;;;;14.93;13.85;;;;;;;;;;4980957;28;20041;-63
2023/05/08 13:31:27;;;;;;;13.82;13.00;;;;;;;;;;5000139;28;20137;-63
2023/05/08 13:33:53;;;;;;;15.35;13.40;;;;;;;;;;4999192;28;20030;-55
2023/05/08 13:36:19;;;;;;;13.70;12.88;;;;;;;;;;4996957;28;20033;-58
2023/05/08 13:38:44;;;;;;;13.63;12.73;;;;;;;;;;4996087;28;20038;-55
2023/05/08 13:41:10;;;;;;;13.35;12.55;;;;;;;;;;4999223;28;20061;-56
2023/05/08 13:43:35;;;;;;;15.48;14.15;;;;;;;;;;4994819;28;20043;-57
2023/05/08 13:46:01;;;;;;;13.00;12.20;;;;;;;;;;4999527;28;20034;-63
2023/05/08 13:48:27;;;;;;;13.63;12.73;;;;;;;;;;4996036;28;20030;-63
2023/05/08 13:50:52;;;;;;;14.30;13.40;;;;;;;;;;4996494;28;20499;-64
2023/05/08 13:53:17;;;;;;;12.77;11.98;;;;;;;;;;4991197;28;20476;-64
2023/05/08 13:55:43;;;;;;;14.23;13.13;;;;;;;;;;4995950;28;20026;-57
2023/05/08 13:58:08;;;;;;;14.35;13.35;;;;;;;;;;4996469;28;20034;-63
2023/05/08 14:00:33;;;;;;;12.80;12.00;;;;;;;;;;4994976;28;20053;-57
2023/05/08 14:02:59;;;;;;;13.48;12.57;;;;;;;;;;4998762;28;20037;-64
2023/05/08 14:05:24;;;;;;;13.18;12.38;;;;;;;;;;4996794;28;20034;-64
2023/05/08 14:07:49;;;;;;;13.00;12.20;;;;;;;;;;4996815;28;20935;-64
2023/05/08 14:10:16;;;;;;;13.63;12.82;;;;;;;;;;4998870;28;20037;-57
2023/05/08 14:12:41;;;;;;;13.32;12.52;;;;;;;;;;4992108;28;20035;-57
2023/05/08 14:15:07;;;;;;;14.55;13.68;;;;;;;;;;4996960;28;20186;-56
2023/05/08 14:17:33;;;;;;;15.15;14.25;;;;;;;;;;4994703;28;20128;-64
2023/05/08 14:19:59;;;;;;;17.27;16.05;;;;;;;;;;5001232;28;20027;-64
2023/05/08 14:22:24;;;;;;;16.65;15.75;;;;;;;;;;4996016;28;20065;-62
2023/05/08 14:24:50;;;;;;;20.27;19.08;;;;;;;;;;4997712;28;20049;-58